Flight Track Log - Related Links

Times and Time Zones

All times are in EDT time to prevent confusion due to time zone crossing. See the EJA933 flight status page for this flight to view local times or setup timezone preferences in your user account.

Time Position Orientation Groundspeed Altitude Reporting Facility
EDT Latitude Longitude Course Direction KTS MPH feet Rate Location/Type
Mon 10:59:22 AM 49.9500 -119.3667 180° South 10 12 1,500  Level Vancouver Center
Mon 11:04:22 AM 49.9167 -119.3667 180° South 130 150 2,700 850 Climbing Vancouver Center
Mon 11:05:22 AM 49.8667 -119.4000 203° Southwest 200 230 6,600 4,150 Climbing Vancouver Center
Mon 11:06:22 AM 49.8167 -119.4833 227° Southwest 260 299 11,000 3,100 Climbing Vancouver Center
Mon 11:07:22 AM 49.7833 -119.5500 232° Southwest 280 322 12,800 1,750 Climbing Vancouver Center
Mon 11:08:22 AM 49.7000 -119.6667 222° Southwest 330 380 14,500 2,200 Climbing Vancouver Center
Mon 11:09:22 AM 49.6167 -119.7500 213° Southwest 350 403 17,200 1,750 Climbing Vancouver Center
Mon 11:10:22 AM 49.5333 -119.8333 213° Southwest 360 414 18,000 400 Climbing Vancouver Center
Mon 11:11:22 AM 49.4500 -119.9500 222° Southwest 400 460 18,000  Level Vancouver Center
Mon 11:12:22 AM 49.3667 -120.0500 218° Southwest 410 472 18,000  Level Vancouver Center
Mon 11:13:22 AM 49.2667 -120.1333 209° Southwest 410 472 18,000  Level Vancouver Center
Mon 11:14:22 AM 49.1833 -120.2500 222° Southwest 400 460 18,000  Level Vancouver Center
Mon 11:15:22 AM 49.0833 -120.3500 213° Southwest 400 460 18,000  Level Vancouver Center
Mon 11:16:22 AM 49.0000 -120.4333 213° Southwest 380 437 18,000  Level Vancouver Center
Mon 11:17:22 AM 48.9000 -120.5500 218° Southwest 380 437 18,000  Level Vancouver Center
Mon 11:18:22 AM 48.8333 -120.6333 219° Southwest 380 437 18,000  Level Vancouver Center
Mon 11:19:22 AM 48.7500 -120.7333 218° Southwest 380 437 18,000  Level Vancouver Center
Mon 11:20:22 AM 48.6667 -120.8500 223° Southwest 380 437 18,000  Level Vancouver Center
Mon 11:21:22 AM 48.5833 -120.9167 208° Southwest 380 437 18,000  Level Vancouver Center
Mon 11:22:09 AM 48.5444 -120.9947 233° Southwest 379 436 18,000  Level Seattle Center
Mon 11:23:10 AM 48.4567 -121.0903 216° Southwest 390 449 18,000  Level Seattle Center
Mon 11:24:11 AM 48.3519 -121.2069 217° Southwest 394 453 18,000 -590 Level Seattle Center
Mon 11:25:12 AM 48.2656 -121.2986 215° Southwest 388 447 16,800 -1,131 Descending Seattle Center
Mon 11:26:13 AM 48.1758 -121.3911 215° Southwest 402 463 15,700 -1,082 Descending Seattle Center
Mon 11:27:14 AM 48.0917 -121.4842 216° Southwest 374 430 14,600 -962 Descending Seattle Center
Mon 11:27:59 AM 48.0367 -121.5461 217° Southwest 296 341 14,000 -885 Descending Seattle Center
Mon 11:28:15 AM 48.0231 -121.5572 209° Southwest 301 346 13,700 -787 Descending Seattle Center
Mon 11:29:00 AM 47.9717 -121.6133 216° Southwest 268 308 13,200 -787 Descending Seattle Center
Mon 11:29:16 AM 47.9594 -121.6239 210° Southwest 285 328 12,900 -857 Descending Seattle Center
Mon 11:30:17 AM 47.8944 -121.6942 216° Southwest 292 336 12,100 -623 Descending Seattle Center
Mon 11:31:02 AM 47.8428 -121.7628 222° Southwest 282 325 11,800 -500 Descending Seattle Center
Mon 11:31:17 AM 47.8367 -121.7711 222° Southwest 282 325 11,600 -1,636 Descending Seattle Center
Mon 11:31:57 AM 47.7972 -121.8450 232° Southwest 276 318 10,300 -2,066 Descending Seattle Center
Mon 11:32:18 AM 47.7906 -121.8772 253° West 279 321 9,500 -2,000 Descending Seattle Center
Mon 11:33:03 AM 47.7714 -121.9619 251° West 281 323 8,100 -1,869 Descending Seattle Center
Mon 11:33:19 AM 47.7658 -121.9867 252° West 283 326 7,600 -1,672 Descending Seattle Center
Mon 11:34:04 AM 47.7467 -122.0650 250° West 272 313 6,400 -1,869 Descending Seattle Center
Mon 11:34:20 AM 47.7378 -122.0969 248° West 268 308 5,700 -2,262 Descending Seattle Center
Mon 11:35:05 AM 47.7217 -122.1681 251° West 261 300 4,100 -1,672 Descending Seattle Center
Mon 11:35:21 AM 47.7125 -122.1953 243° Southwest 257 296 4,000  Descending Seattle Center
Mon 11:36:06 AM 47.6900 -122.2547 241° Southwest 209 241 4,100  Climbing Seattle Center
Mon 11:36:22 AM 47.6831 -122.2711 238° Southwest 210 242 4,000 -98 Descending Seattle Center
Mon 11:37:07 AM 47.6522 -122.3153 224° Southwest 194 223 4,000 -295 Level Seattle Center
Mon 11:37:23 AM 47.6383 -122.3181 188° South 213 245 3,700 -900 Descending Seattle Center
Mon 11:38:07 AM 47.5967 -122.3164 178° South 199 229 3,100 -900 Descending Seattle Center
Mon 11:38:23 AM 47.5853 -122.3164 180° South 197 227 2,800 -885 Descending Seattle Center
Mon 11:39:08 AM 47.5481 -122.3169 181° South 180 207 2,200 -984 Descending Seattle Center
Mon 11:39:24 AM 47.5331 -122.3175 181° South 174 200 1,800 -896 Descending Seattle Center
Mon 11:40:15 AM 47.4992 -122.3178 180° South 144 166 1,200 -623 Descending Seattle Center
Mon 11:41:10 AM 47.4683 -122.3183 181° South 121 139 700 -676 Descending Seattle Center
Mon 11:41:26 AM 47.4583 -122.3183 180° South 128 147 400 -1,125 Descending Seattle Center

Login

Don't have an account? Register now (free) for customized features, flight alerts, and more!